sensor_id;sensor_type;location;lat;lon;timestamp;P1;durP1;ratioP1;P2;durP2;ratioP2
73283;SDS011;61519;60.050;18.582;2024-03-06T00:00:06;9.70;;;2.50;;
73283;SDS011;61519;60.050;18.582;2024-03-06T00:02:33;5.83;;;2.37;;
73283;SDS011;61519;60.050;18.582;2024-03-06T00:04:59;5.60;;;2.30;;
73283;SDS011;61519;60.050;18.582;2024-03-06T00:07:25;6.37;;;2.67;;
73283;SDS011;61519;60.050;18.582;2024-03-06T00:09:51;8.32;;;3.33;;
73283;SDS011;61519;60.050;18.582;2024-03-06T00:12:18;8.52;;;2.58;;
73283;SDS011;61519;60.050;18.582;2024-03-06T00:14:43;6.23;;;2.53;;
73283;SDS011;61519;60.050;18.582;2024-03-06T00:17:09;5.30;;;2.43;;
73283;SDS011;61519;60.050;18.582;2024-03-06T00:19:34;5.43;;;2.50;;
73283;SDS011;61519;60.050;18.582;2024-03-06T00:22:00;7.95;;;2.63;;
73283;SDS011;61519;60.050;18.582;2024-03-06T00:24:26;4.50;;;2.17;;
73283;SDS011;61519;60.050;18.582;2024-03-06T00:26:51;7.20;;;2.80;;
73283;SDS011;61519;60.050;18.582;2024-03-06T00:29:17;10.98;;;3.25;;
73283;SDS011;61519;60.050;18.582;2024-03-06T00:31:43;5.63;;;2.23;;
73283;SDS011;61519;60.050;18.582;2024-03-06T00:34:09;7.80;;;2.60;;
73283;SDS011;61519;60.050;18.582;2024-03-06T00:36:36;4.85;;;2.22;;
73283;SDS011;61519;60.050;18.582;2024-03-06T00:39:02;5.20;;;1.92;;
73283;SDS011;61519;60.050;18.582;2024-03-06T00:41:29;7.85;;;2.63;;
73283;SDS011;61519;60.050;18.582;2024-03-06T00:43:55;6.33;;;2.13;;
73283;SDS011;61519;60.050;18.582;2024-03-06T00:46:20;4.80;;;2.27;;
73283;SDS011;61519;60.050;18.582;2024-03-06T00:48:45;6.13;;;2.17;;
73283;SDS011;61519;60.050;18.582;2024-03-06T00:51:11;5.37;;;2.13;;
73283;SDS011;61519;60.050;18.582;2024-03-06T00:53:37;4.20;;;2.15;;
73283;SDS011;61519;60.050;18.582;2024-03-06T00:56:02;5.70;;;2.50;;
73283;SDS011;61519;60.050;18.582;2024-03-06T00:58:28;9.05;;;2.40;;
73283;SDS011;61519;60.050;18.582;2024-03-06T01:00:53;6.73;;;2.13;;
73283;SDS011;61519;60.050;18.582;2024-03-06T01:03:18;4.83;;;2.17;;
73283;SDS011;61519;60.050;18.582;2024-03-06T01:05:44;8.50;;;2.60;;
73283;SDS011;61519;60.050;18.582;2024-03-06T01:08:11;5.55;;;2.20;;
73283;SDS011;61519;60.050;18.582;2024-03-06T01:10:36;7.30;;;2.43;;
73283;SDS011;61519;60.050;18.582;2024-03-06T01:13:01;6.10;;;2.77;;
73283;SDS011;61519;60.050;18.582;2024-03-06T01:15:27;6.30;;;2.63;;
73283;SDS011;61519;60.050;18.582;2024-03-06T01:17:52;8.33;;;2.50;;
73283;SDS011;61519;60.050;18.582;2024-03-06T01:20:18;10.47;;;2.37;;
73283;SDS011;61519;60.050;18.582;2024-03-06T01:22:43;5.65;;;2.20;;
73283;SDS011;61519;60.050;18.582;2024-03-06T01:25:08;4.77;;;2.00;;
73283;SDS011;61519;60.050;18.582;2024-03-06T01:27:34;13.00;;;2.23;;
73283;SDS011;61519;60.050;18.582;2024-03-06T01:30:00;10.70;;;2.30;;
73283;SDS011;61519;60.050;18.582;2024-03-06T01:32:25;18.42;;;2.58;;
73283;SDS011;61519;60.050;18.582;2024-03-06T01:34:51;8.10;;;2.10;;
73283;SDS011;61519;60.050;18.582;2024-03-06T01:37:16;29.83;;;2.77;;
73283;SDS011;61519;60.050;18.582;2024-03-06T01:39:41;9.83;;;2.17;;
73283;SDS011;61519;60.050;18.582;2024-03-06T01:42:07;17.33;;;2.33;;
73283;SDS011;61519;60.050;18.582;2024-03-06T01:44:32;26.95;;;2.53;;
73283;SDS011;61519;60.050;18.582;2024-03-06T01:46:58;27.77;;;2.57;;
73283;SDS011;61519;60.050;18.582;2024-03-06T01:49:23;23.27;;;2.63;;
73283;SDS011;61519;60.050;18.582;2024-03-06T01:51:52;29.70;;;2.67;;
73283;SDS011;61519;60.050;18.582;2024-03-06T01:54:19;16.77;;;2.33;;
73283;SDS011;61519;60.050;18.582;2024-03-06T01:56:45;9.30;;;2.20;;
73283;SDS011;61519;60.050;18.582;2024-03-06T01:59:13;11.63;;;2.17;;
73283;SDS011;61519;60.050;18.582;2024-03-06T02:01:40;6.43;;;1.93;;
73283;SDS011;61519;60.050;18.582;2024-03-06T02:04:06;11.30;;;2.50;;
73283;SDS011;61519;60.050;18.582;2024-03-06T02:06:34;12.45;;;2.50;;
73283;SDS011;61519;60.050;18.582;2024-03-06T02:09:00;7.32;;;2.20;;
73283;SDS011;61519;60.050;18.582;2024-03-06T02:11:26;29.47;;;2.93;;
73283;SDS011;61519;60.050;18.582;2024-03-06T02:13:51;15.70;;;2.50;;
73283;SDS011;61519;60.050;18.582;2024-03-06T02:16:16;4.57;;;1.57;;
73283;SDS011;61519;60.050;18.582;2024-03-06T02:18:51;17.50;;;2.27;;
73283;SDS011;61519;60.050;18.582;2024-03-06T02:21:19;4.15;;;1.83;;
73283;SDS011;61519;60.050;18.582;2024-03-06T02:23:45;13.55;;;1.85;;
73283;SDS011;61519;60.050;18.582;2024-03-06T02:26:11;18.97;;;2.20;;
73283;SDS011;61519;60.050;18.582;2024-03-06T02:28:36;17.67;;;2.23;;
73283;SDS011;61519;60.050;18.582;2024-03-06T02:31:01;24.97;;;2.13;;
73283;SDS011;61519;60.050;18.582;2024-03-06T02:33:27;43.87;;;2.40;;
73283;SDS011;61519;60.050;18.582;2024-03-06T02:35:52;28.13;;;2.13;;
73283;SDS011;61519;60.050;18.582;2024-03-06T02:38:18;6.83;;;1.60;;
73283;SDS011;61519;60.050;18.582;2024-03-06T02:40:43;24.30;;;2.23;;
73283;SDS011;61519;60.050;18.582;2024-03-06T02:43:09;26.33;;;1.88;;
73283;SDS011;61519;60.050;18.582;2024-03-06T02:45:35;16.10;;;1.73;;
73283;SDS011;61519;60.050;18.582;2024-03-06T02:48:00;21.73;;;2.03;;
73283;SDS011;61519;60.050;18.582;2024-03-06T02:50:25;12.33;;;1.83;;
73283;SDS011;61519;60.050;18.582;2024-03-06T02:52:51;12.07;;;1.77;;
73283;SDS011;61519;60.050;18.582;2024-03-06T02:55:18;4.97;;;1.90;;
73283;SDS011;61519;60.050;18.582;2024-03-06T02:57:43;10.20;;;1.83;;
73283;SDS011;61519;60.050;18.582;2024-03-06T03:00:09;7.05;;;2.15;;
73283;SDS011;61519;60.050;18.582;2024-03-06T03:02:38;13.67;;;2.50;;
73283;SDS011;61519;60.050;18.582;2024-03-06T03:05:04;10.32;;;2.33;;
73283;SDS011;61519;60.050;18.582;2024-03-06T03:07:30;22.92;;;1.83;;
73283;SDS011;61519;60.050;18.582;2024-03-06T03:09:55;11.83;;;1.90;;
73283;SDS011;61519;60.050;18.582;2024-03-06T03:12:20;11.53;;;1.43;;
73283;SDS011;61519;60.050;18.582;2024-03-06T03:14:46;29.27;;;2.23;;
73283;SDS011;61519;60.050;18.582;2024-03-06T03:17:11;24.83;;;2.20;;
73283;SDS011;61519;60.050;18.582;2024-03-06T03:19:37;25.25;;;2.28;;
73283;SDS011;61519;60.050;18.582;2024-03-06T03:22:05;5.75;;;1.77;;
73283;SDS011;61519;60.050;18.582;2024-03-06T03:24:30;7.33;;;1.37;;
73283;SDS011;61519;60.050;18.582;2024-03-06T03:26:55;5.77;;;1.40;;
73283;SDS011;61519;60.050;18.582;2024-03-06T03:29:21;4.53;;;1.70;;
73283;SDS011;61519;60.050;18.582;2024-03-06T03:31:47;8.48;;;1.70;;
73283;SDS011;61519;60.050;18.582;2024-03-06T03:34:12;13.17;;;1.80;;
73283;SDS011;61519;60.050;18.582;2024-03-06T03:36:41;4.70;;;1.57;;
73283;SDS011;61519;60.050;18.582;2024-03-06T03:39:07;5.20;;;1.98;;
73283;SDS011;61519;60.050;18.582;2024-03-06T03:41:43;6.80;;;1.90;;
73283;SDS011;61519;60.050;18.582;2024-03-06T03:44:11;15.30;;;1.50;;
73283;SDS011;61519;60.050;18.582;2024-03-06T03:46:44;7.03;;;1.52;;
73283;SDS011;61519;60.050;18.582;2024-03-06T03:49:09;5.10;;;1.92;;
73283;SDS011;61519;60.050;18.582;2024-03-06T03:51:35;4.87;;;1.73;;
73283;SDS011;61519;60.050;18.582;2024-03-06T03:54:02;4.30;;;1.73;;
73283;SDS011;61519;60.050;18.582;2024-03-06T03:56:28;3.43;;;1.23;;
73283;SDS011;61519;60.050;18.582;2024-03-06T03:58:55;8.13;;;1.60;;
73283;SDS011;61519;60.050;18.582;2024-03-06T04:01:21;3.70;;;1.60;;
73283;SDS011;61519;60.050;18.582;2024-03-06T04:03:48;3.83;;;1.92;;
73283;SDS011;61519;60.050;18.582;2024-03-06T04:06:15;4.78;;;1.73;;
73283;SDS011;61519;60.050;18.582;2024-03-06T04:08:41;5.93;;;1.83;;
73283;SDS011;61519;60.050;18.582;2024-03-06T04:11:06;7.20;;;1.50;;
73283;SDS011;61519;60.050;18.582;2024-03-06T04:13:34;4.27;;;1.67;;
73283;SDS011;61519;60.050;18.582;2024-03-06T04:16:01;5.03;;;1.65;;
73283;SDS011;61519;60.050;18.582;2024-03-06T04:18:27;7.88;;;1.60;;
73283;SDS011;61519;60.050;18.582;2024-03-06T04:20:52;8.77;;;2.60;;
73283;SDS011;61519;60.050;18.582;2024-03-06T04:23:18;4.30;;;1.77;;
73283;SDS011;61519;60.050;18.582;2024-03-06T04:25:43;3.73;;;1.37;;
73283;SDS011;61519;60.050;18.582;2024-03-06T04:28:09;5.20;;;1.60;;
73283;SDS011;61519;60.050;18.582;2024-03-06T04:30:35;4.83;;;1.73;;
73283;SDS011;61519;60.050;18.582;2024-03-06T04:33:00;5.93;;;2.23;;
73283;SDS011;61519;60.050;18.582;2024-03-06T04:35:26;6.00;;;1.80;;
73283;SDS011;61519;60.050;18.582;2024-03-06T04:37:51;8.88;;;1.90;;
73283;SDS011;61519;60.050;18.582;2024-03-06T04:40:17;8.83;;;1.63;;
73283;SDS011;61519;60.050;18.582;2024-03-06T04:42:45;7.13;;;1.50;;
73283;SDS011;61519;60.050;18.582;2024-03-06T04:45:14;5.10;;;1.55;;
73283;SDS011;61519;60.050;18.582;2024-03-06T04:47:40;4.70;;;1.80;;
73283;SDS011;61519;60.050;18.582;2024-03-06T04:50:12;7.78;;;1.88;;
73283;SDS011;61519;60.050;18.582;2024-03-06T04:52:39;3.93;;;1.40;;
73283;SDS011;61519;60.050;18.582;2024-03-06T04:55:06;4.97;;;1.98;;
73283;SDS011;61519;60.050;18.582;2024-03-06T04:57:32;8.07;;;1.73;;
73283;SDS011;61519;60.050;18.582;2024-03-06T04:59:57;5.57;;;2.00;;
73283;SDS011;61519;60.050;18.582;2024-03-06T05:02:23;4.85;;;1.70;;
73283;SDS011;61519;60.050;18.582;2024-03-06T05:04:50;4.83;;;1.90;;
73283;SDS011;61519;60.050;18.582;2024-03-06T05:07:15;4.97;;;1.80;;
73283;SDS011;61519;60.050;18.582;2024-03-06T05:09:40;31.13;;;2.63;;
73283;SDS011;61519;60.050;18.582;2024-03-06T05:12:06;8.50;;;1.67;;
73283;SDS011;61519;60.050;18.582;2024-03-06T05:14:32;6.28;;;1.75;;
73283;SDS011;61519;60.050;18.582;2024-03-06T05:16:57;4.03;;;1.60;;
73283;SDS011;61519;60.050;18.582;2024-03-06T05:19:23;4.23;;;1.63;;
73283;SDS011;61519;60.050;18.582;2024-03-06T05:21:48;6.10;;;1.80;;
73283;SDS011;61519;60.050;18.582;2024-03-06T05:24:14;6.50;;;1.53;;
73283;SDS011;61519;60.050;18.582;2024-03-06T05:26:39;4.17;;;1.73;;
73283;SDS011;61519;60.050;18.582;2024-03-06T05:29:04;7.40;;;1.50;;
73283;SDS011;61519;60.050;18.582;2024-03-06T05:31:29;3.73;;;1.50;;
73283;SDS011;61519;60.050;18.582;2024-03-06T05:33:55;11.82;;;1.60;;
73283;SDS011;61519;60.050;18.582;2024-03-06T05:36:20;6.10;;;1.70;;
73283;SDS011;61519;60.050;18.582;2024-03-06T05:38:46;4.83;;;1.50;;
73283;SDS011;61519;60.050;18.582;2024-03-06T05:41:12;4.78;;;2.08;;
73283;SDS011;61519;60.050;18.582;2024-03-06T05:43:38;3.50;;;1.27;;
73283;SDS011;61519;60.050;18.582;2024-03-06T05:46:03;4.00;;;1.70;;
73283;SDS011;61519;60.050;18.582;2024-03-06T05:48:29;4.15;;;1.55;;
73283;SDS011;61519;60.050;18.582;2024-03-06T05:50:55;6.10;;;1.60;;
73283;SDS011;61519;60.050;18.582;2024-03-06T05:53:20;4.27;;;1.33;;
73283;SDS011;61519;60.050;18.582;2024-03-06T05:55:45;6.43;;;1.83;;
73283;SDS011;61519;60.050;18.582;2024-03-06T05:58:11;3.60;;;1.40;;
73283;SDS011;61519;60.050;18.582;2024-03-06T06:00:36;6.57;;;1.43;;
73283;SDS011;61519;60.050;18.582;2024-03-06T06:03:03;6.90;;;1.30;;
73283;SDS011;61519;60.050;18.582;2024-03-06T06:05:28;3.53;;;1.40;;
73283;SDS011;61519;60.050;18.582;2024-03-06T06:07:53;4.67;;;1.67;;
73283;SDS011;61519;60.050;18.582;2024-03-06T06:10:19;3.20;;;1.23;;
73283;SDS011;61519;60.050;18.582;2024-03-06T06:12:45;4.03;;;1.37;;
73283;SDS011;61519;60.050;18.582;2024-03-06T06:15:10;2.63;;;1.13;;
73283;SDS011;61519;60.050;18.582;2024-03-06T06:17:35;10.37;;;1.93;;
73283;SDS011;61519;60.050;18.582;2024-03-06T06:20:02;4.50;;;1.65;;
73283;SDS011;61519;60.050;18.582;2024-03-06T06:22:29;6.38;;;1.65;;
73283;SDS011;61519;60.050;18.582;2024-03-06T06:24:54;4.60;;;1.70;;
73283;SDS011;61519;60.050;18.582;2024-03-06T06:27:20;3.90;;;1.50;;
73283;SDS011;61519;60.050;18.582;2024-03-06T06:29:46;5.57;;;1.53;;
73283;SDS011;61519;60.050;18.582;2024-03-06T06:32:11;3.63;;;1.53;;
73283;SDS011;61519;60.050;18.582;2024-03-06T06:34:36;3.30;;;1.47;;
73283;SDS011;61519;60.050;18.582;2024-03-06T06:37:02;3.70;;;1.63;;
73283;SDS011;61519;60.050;18.582;2024-03-06T06:39:27;4.23;;;1.40;;
73283;SDS011;61519;60.050;18.582;2024-03-06T06:41:52;3.13;;;1.07;;
73283;SDS011;61519;60.050;18.582;2024-03-06T06:44:18;5.33;;;1.20;;
73283;SDS011;61519;60.050;18.582;2024-03-06T06:46:43;2.97;;;1.20;;
73283;SDS011;61519;60.050;18.582;2024-03-06T06:49:09;4.82;;;1.23;;
73283;SDS011;61519;60.050;18.582;2024-03-06T06:51:34;4.25;;;1.75;;
73283;SDS011;61519;60.050;18.582;2024-03-06T06:54:00;3.43;;;1.30;;
73283;SDS011;61519;60.050;18.582;2024-03-06T06:56:25;3.67;;;1.42;;
73283;SDS011;61519;60.050;18.582;2024-03-06T06:58:51;3.63;;;1.30;;
73283;SDS011;61519;60.050;18.582;2024-03-06T07:01:16;4.20;;;1.47;;
73283;SDS011;61519;60.050;18.582;2024-03-06T07:03:42;3.33;;;1.47;;
73283;SDS011;61519;60.050;18.582;2024-03-06T07:06:07;11.47;;;1.20;;
73283;SDS011;61519;60.050;18.582;2024-03-06T07:08:33;4.18;;;2.15;;
73283;SDS011;61519;60.050;18.582;2024-03-06T07:10:58;4.00;;;1.50;;
73283;SDS011;61519;60.050;18.582;2024-03-06T07:13:24;3.67;;;1.60;;
73283;SDS011;61519;60.050;18.582;2024-03-06T07:15:49;6.63;;;1.37;;
73283;SDS011;61519;60.050;18.582;2024-03-06T07:18:15;4.03;;;1.70;;
73283;SDS011;61519;60.050;18.582;2024-03-06T07:20:40;3.43;;;1.40;;
73283;SDS011;61519;60.050;18.582;2024-03-06T07:23:06;5.35;;;1.85;;
73283;SDS011;61519;60.050;18.582;2024-03-06T07:25:31;4.67;;;1.40;;
73283;SDS011;61519;60.050;18.582;2024-03-06T07:27:57;4.10;;;1.40;;
73283;SDS011;61519;60.050;18.582;2024-03-06T07:30:22;3.58;;;1.52;;
73283;SDS011;61519;60.050;18.582;2024-03-06T07:32:48;4.22;;;1.58;;
73283;SDS011;61519;60.050;18.582;2024-03-06T07:35:13;3.97;;;1.30;;
73283;SDS011;61519;60.050;18.582;2024-03-06T07:37:39;4.90;;;1.80;;
73283;SDS011;61519;60.050;18.582;2024-03-06T07:40:06;3.73;;;1.10;;
73283;SDS011;61519;60.050;18.582;2024-03-06T07:42:33;3.75;;;1.63;;
73283;SDS011;61519;60.050;18.582;2024-03-06T07:44:58;4.07;;;1.67;;
73283;SDS011;61519;60.050;18.582;2024-03-06T07:47:24;6.53;;;1.73;;
73283;SDS011;61519;60.050;18.582;2024-03-06T07:49:49;7.43;;;1.83;;
73283;SDS011;61519;60.050;18.582;2024-03-06T07:52:15;4.60;;;1.90;;
73283;SDS011;61519;60.050;18.582;2024-03-06T07:54:41;17.05;;;5.20;;
73283;SDS011;61519;60.050;18.582;2024-03-06T07:57:06;33.97;;;3.72;;
73283;SDS011;61519;60.050;18.582;2024-03-06T07:59:32;9.20;;;2.20;;
73283;SDS011;61519;60.050;18.582;2024-03-06T08:01:57;17.47;;;4.87;;
73283;SDS011;61519;60.050;18.582;2024-03-06T08:04:22;5.97;;;2.43;;
73283;SDS011;61519;60.050;18.582;2024-03-06T08:06:48;6.60;;;3.00;;
73283;SDS011;61519;60.050;18.582;2024-03-06T08:09:14;12.20;;;2.97;;
73283;SDS011;61519;60.050;18.582;2024-03-06T08:11:41;9.52;;;3.20;;
73283;SDS011;61519;60.050;18.582;2024-03-06T08:14:07;7.65;;;3.78;;
73283;SDS011;61519;60.050;18.582;2024-03-06T08:16:32;8.53;;;3.13;;
73283;SDS011;61519;60.050;18.582;2024-03-06T08:18:59;6.85;;;2.80;;
73283;SDS011;61519;60.050;18.582;2024-03-06T08:21:25;7.20;;;1.90;;
73283;SDS011;61519;60.050;18.582;2024-03-06T08:23:50;21.63;;;2.40;;
73283;SDS011;61519;60.050;18.582;2024-03-06T08:26:16;6.93;;;1.83;;
73283;SDS011;61519;60.050;18.582;2024-03-06T08:28:41;5.85;;;1.75;;
73283;SDS011;61519;60.050;18.582;2024-03-06T08:31:07;4.13;;;1.73;;
73283;SDS011;61519;60.050;18.582;2024-03-06T08:33:33;4.43;;;1.60;;
73283;SDS011;61519;60.050;18.582;2024-03-06T08:35:58;5.43;;;2.00;;
73283;SDS011;61519;60.050;18.582;2024-03-06T08:38:24;4.90;;;2.00;;
73283;SDS011;61519;60.050;18.582;2024-03-06T08:40:50;4.55;;;1.52;;
73283;SDS011;61519;60.050;18.582;2024-03-06T08:43:16;5.40;;;2.60;;
73283;SDS011;61519;60.050;18.582;2024-03-06T08:45:41;5.47;;;2.13;;
73283;SDS011;61519;60.050;18.582;2024-03-06T08:48:07;6.33;;;2.07;;
73283;SDS011;61519;60.050;18.582;2024-03-06T08:50:33;5.20;;;2.30;;
73283;SDS011;61519;60.050;18.582;2024-03-06T08:52:58;5.30;;;2.22;;
73283;SDS011;61519;60.050;18.582;2024-03-06T08:55:23;5.10;;;1.70;;
73283;SDS011;61519;60.050;18.582;2024-03-06T08:57:49;4.50;;;1.90;;
73283;SDS011;61519;60.050;18.582;2024-03-06T09:00:15;4.43;;;1.65;;
73283;SDS011;61519;60.050;18.582;2024-03-06T09:02:42;5.80;;;1.47;;
73283;SDS011;61519;60.050;18.582;2024-03-06T09:05:08;6.25;;;1.65;;
73283;SDS011;61519;60.050;18.582;2024-03-06T09:07:35;4.33;;;1.47;;
73283;SDS011;61519;60.050;18.582;2024-03-06T09:10:05;3.88;;;1.35;;
73283;SDS011;61519;60.050;18.582;2024-03-06T09:12:31;3.90;;;1.83;;
73283;SDS011;61519;60.050;18.582;2024-03-06T09:14:57;4.13;;;1.70;;
73283;SDS011;61519;60.050;18.582;2024-03-06T09:17:22;4.70;;;1.77;;
73283;SDS011;61519;60.050;18.582;2024-03-06T09:19:48;4.27;;;1.40;;
73283;SDS011;61519;60.050;18.582;2024-03-06T09:22:13;3.80;;;1.50;;
73283;SDS011;61519;60.050;18.582;2024-03-06T09:24:39;4.53;;;1.40;;
73283;SDS011;61519;60.050;18.582;2024-03-06T09:27:04;4.57;;;1.60;;
73283;SDS011;61519;60.050;18.582;2024-03-06T09:29:30;4.40;;;2.00;;
73283;SDS011;61519;60.050;18.582;2024-03-06T09:31:55;5.30;;;1.80;;
73283;SDS011;61519;60.050;18.582;2024-03-06T09:34:21;4.97;;;2.07;;
73283;SDS011;61519;60.050;18.582;2024-03-06T09:36:47;3.60;;;1.50;;
73283;SDS011;61519;60.050;18.582;2024-03-06T09:39:14;4.57;;;1.48;;
73283;SDS011;61519;60.050;18.582;2024-03-06T09:41:48;5.00;;;1.83;;
73283;SDS011;61519;60.050;18.582;2024-03-06T09:44:17;4.63;;;2.07;;
73283;SDS011;61519;60.050;18.582;2024-03-06T09:46:43;4.32;;;1.55;;
73283;SDS011;61519;60.050;18.582;2024-03-06T09:49:19;4.28;;;1.80;;
73283;SDS011;61519;60.050;18.582;2024-03-06T09:51:48;4.57;;;1.50;;
73283;SDS011;61519;60.050;18.582;2024-03-06T09:54:17;3.63;;;1.40;;
73283;SDS011;61519;60.050;18.582;2024-03-06T09:56:45;5.05;;;2.10;;
73283;SDS011;61519;60.050;18.582;2024-03-06T09:59:11;6.97;;;2.13;;
73283;SDS011;61519;60.050;18.582;2024-03-06T10:01:42;5.67;;;1.87;;
73283;SDS011;61519;60.050;18.582;2024-03-06T10:04:24;4.28;;;1.60;;
73283;SDS011;61519;60.050;18.582;2024-03-06T10:06:50;4.15;;;1.50;;
73283;SDS011;61519;60.050;18.582;2024-03-06T10:09:19;5.53;;;1.60;;
73283;SDS011;61519;60.050;18.582;2024-03-06T10:11:45;4.13;;;1.23;;
73283;SDS011;61519;60.050;18.582;2024-03-06T10:14:11;5.57;;;1.50;;
73283;SDS011;61519;60.050;18.582;2024-03-06T10:16:37;5.47;;;1.60;;
73283;SDS011;61519;60.050;18.582;2024-03-06T10:19:25;4.07;;;1.63;;
73283;SDS011;61519;60.050;18.582;2024-03-06T10:21:54;4.85;;;1.45;;
73283;SDS011;61519;60.050;18.582;2024-03-06T10:24:22;3.50;;;1.37;;
73283;SDS011;61519;60.050;18.582;2024-03-06T10:26:49;4.65;;;1.67;;
73283;SDS011;61519;60.050;18.582;2024-03-06T10:29:17;4.40;;;1.65;;
73283;SDS011;61519;60.050;18.582;2024-03-06T10:34:16;5.88;;;1.70;;
73283;SDS011;61519;60.050;18.582;2024-03-06T10:36:42;3.67;;;1.47;;
73283;SDS011;61519;60.050;18.582;2024-03-06T10:39:08;3.70;;;1.30;;
73283;SDS011;61519;60.050;18.582;2024-03-06T10:41:38;4.15;;;1.88;;
73283;SDS011;61519;60.050;18.582;2024-03-06T10:44:06;3.90;;;1.47;;
73283;SDS011;61519;60.050;18.582;2024-03-06T10:46:38;3.28;;;1.23;;
73283;SDS011;61519;60.050;18.582;2024-03-06T10:49:08;5.22;;;1.52;;
73283;SDS011;61519;60.050;18.582;2024-03-06T10:51:36;3.40;;;1.42;;
73283;SDS011;61519;60.050;18.582;2024-03-06T10:54:07;2.90;;;1.20;;
73283;SDS011;61519;60.050;18.582;2024-03-06T10:56:33;3.17;;;1.20;;
73283;SDS011;61519;60.050;18.582;2024-03-06T10:58:59;4.45;;;1.40;;
73283;SDS011;61519;60.050;18.582;2024-03-06T11:01:26;4.68;;;1.45;;
73283;SDS011;61519;60.050;18.582;2024-03-06T11:03:57;4.30;;;1.88;;
73283;SDS011;61519;60.050;18.582;2024-03-06T11:06:25;7.50;;;2.20;;
73283;SDS011;61519;60.050;18.582;2024-03-06T11:08:51;4.85;;;2.20;;
73283;SDS011;61519;60.050;18.582;2024-03-06T11:11:20;5.40;;;2.70;;
73283;SDS011;61519;60.050;18.582;2024-03-06T11:13:47;4.07;;;1.40;;
73283;SDS011;61519;60.050;18.582;2024-03-06T11:16:12;5.63;;;1.08;;
73283;SDS011;61519;60.050;18.582;2024-03-06T11:23:29;4.77;;;1.20;;
73283;SDS011;61519;60.050;18.582;2024-03-06T11:25:56;5.63;;;1.30;;
73283;SDS011;61519;60.050;18.582;2024-03-06T11:28:32;3.40;;;1.02;;
73283;SDS011;61519;60.050;18.582;2024-03-06T11:33:28;3.30;;;1.30;;
73283;SDS011;61519;60.050;18.582;2024-03-06T11:36:23;3.55;;;1.30;;
73283;SDS011;61519;60.050;18.582;2024-03-06T11:39:03;3.67;;;1.63;;
73283;SDS011;61519;60.050;18.582;2024-03-06T11:44:28;5.07;;;2.10;;
73283;SDS011;61519;60.050;18.582;2024-03-06T11:49:26;5.65;;;2.58;;
73283;SDS011;61519;60.050;18.582;2024-03-06T11:52:02;4.73;;;1.93;;
73283;SDS011;61519;60.050;18.582;2024-03-06T11:54:30;5.88;;;2.28;;
73283;SDS011;61519;60.050;18.582;2024-03-06T11:56:57;4.65;;;1.83;;
73283;SDS011;61519;60.050;18.582;2024-03-06T11:59:42;4.50;;;1.60;;
73283;SDS011;61519;60.050;18.582;2024-03-06T12:02:07;3.70;;;1.60;;
73283;SDS011;61519;60.050;18.582;2024-03-06T12:04:35;4.00;;;1.53;;
73283;SDS011;61519;60.050;18.582;2024-03-06T12:07:04;5.88;;;1.30;;
73283;SDS011;61519;60.050;18.582;2024-03-06T12:09:30;3.42;;;1.20;;
73283;SDS011;61519;60.050;18.582;2024-03-06T12:11:57;4.20;;;1.00;;
73283;SDS011;61519;60.050;18.582;2024-03-06T12:14:24;5.50;;;1.10;;
73283;SDS011;61519;60.050;18.582;2024-03-06T12:16:55;4.20;;;0.98;;
73283;SDS011;61519;60.050;18.582;2024-03-06T12:19:21;4.35;;;1.35;;
73283;SDS011;61519;60.050;18.582;2024-03-06T12:21:47;3.43;;;1.30;;
73283;SDS011;61519;60.050;18.582;2024-03-06T12:24:15;4.13;;;1.65;;
73283;SDS011;61519;60.050;18.582;2024-03-06T12:26:41;3.45;;;1.45;;
73283;SDS011;61519;60.050;18.582;2024-03-06T12:29:07;3.00;;;0.80;;
73283;SDS011;61519;60.050;18.582;2024-03-06T12:31:34;6.07;;;1.60;;
73283;SDS011;61519;60.050;18.582;2024-03-06T12:34:01;3.03;;;1.20;;
73283;SDS011;61519;60.050;18.582;2024-03-06T12:36:30;3.25;;;1.17;;
73283;SDS011;61519;60.050;18.582;2024-03-06T12:38:57;4.40;;;1.20;;
73283;SDS011;61519;60.050;18.582;2024-03-06T12:41:24;4.20;;;1.70;;
73283;SDS011;61519;60.050;18.582;2024-03-06T12:43:51;3.28;;;0.95;;
73283;SDS011;61519;60.050;18.582;2024-03-06T12:46:16;2.72;;;1.10;;
73283;SDS011;61519;60.050;18.582;2024-03-06T12:48:42;5.50;;;1.30;;
73283;SDS011;61519;60.050;18.582;2024-03-06T12:51:07;5.07;;;1.00;;
73283;SDS011;61519;60.050;18.582;2024-03-06T12:53:32;3.30;;;1.17;;
73283;SDS011;61519;60.050;18.582;2024-03-06T12:56:00;3.97;;;1.67;;
73283;SDS011;61519;60.050;18.582;2024-03-06T12:58:25;4.13;;;1.20;;
73283;SDS011;61519;60.050;18.582;2024-03-06T13:00:50;4.97;;;1.27;;
73283;SDS011;61519;60.050;18.582;2024-03-06T13:03:17;2.63;;;0.93;;
73283;SDS011;61519;60.050;18.582;2024-03-06T13:05:42;4.93;;;1.50;;
73283;SDS011;61519;60.050;18.582;2024-03-06T13:08:08;5.07;;;2.20;;
73283;SDS011;61519;60.050;18.582;2024-03-06T13:10:33;5.00;;;1.83;;
73283;SDS011;61519;60.050;18.582;2024-03-06T13:13:00;3.97;;;1.33;;
73283;SDS011;61519;60.050;18.582;2024-03-06T13:15:25;5.23;;;1.67;;
73283;SDS011;61519;60.050;18.582;2024-03-06T13:17:51;2.90;;;1.33;;
73283;SDS011;61519;60.050;18.582;2024-03-06T13:20:16;6.60;;;1.40;;
73283;SDS011;61519;60.050;18.582;2024-03-06T13:22:42;2.83;;;1.07;;
73283;SDS011;61519;60.050;18.582;2024-03-06T13:25:09;2.88;;;1.23;;
73283;SDS011;61519;60.050;18.582;2024-03-06T13:27:34;4.30;;;1.50;;
73283;SDS011;61519;60.050;18.582;2024-03-06T13:30:00;3.70;;;1.10;;
73283;SDS011;61519;60.050;18.582;2024-03-06T13:32:25;3.77;;;1.00;;
73283;SDS011;61519;60.050;18.582;2024-03-06T13:34:51;4.75;;;1.15;;
73283;SDS011;61519;60.050;18.582;2024-03-06T13:37:16;2.88;;;0.95;;
73283;SDS011;61519;60.050;18.582;2024-03-06T13:39:42;4.67;;;1.30;;
73283;SDS011;61519;60.050;18.582;2024-03-06T13:42:07;3.97;;;1.30;;
73283;SDS011;61519;60.050;18.582;2024-03-06T13:44:34;3.53;;;1.40;;
73283;SDS011;61519;60.050;18.582;2024-03-06T13:47:00;3.03;;;1.20;;
73283;SDS011;61519;60.050;18.582;2024-03-06T13:49:37;4.25;;;1.50;;
73283;SDS011;61519;60.050;18.582;2024-03-06T13:52:06;4.47;;;1.92;;
73283;SDS011;61519;60.050;18.582;2024-03-06T13:54:35;5.72;;;2.40;;
73283;SDS011;61519;60.050;18.582;2024-03-06T13:57:02;6.38;;;2.20;;
73283;SDS011;61519;60.050;18.582;2024-03-06T13:59:29;9.80;;;3.33;;
73283;SDS011;61519;60.050;18.582;2024-03-06T14:01:58;4.07;;;1.40;;
73283;SDS011;61519;60.050;18.582;2024-03-06T14:04:25;5.35;;;1.45;;
73283;SDS011;61519;60.050;18.582;2024-03-06T14:06:51;4.27;;;1.60;;
73283;SDS011;61519;60.050;18.582;2024-03-06T14:09:16;5.05;;;1.90;;
73283;SDS011;61519;60.050;18.582;2024-03-06T14:11:42;4.93;;;1.17;;
73283;SDS011;61519;60.050;18.582;2024-03-06T14:14:07;3.40;;;1.27;;
73283;SDS011;61519;60.050;18.582;2024-03-06T14:16:33;4.10;;;1.52;;
73283;SDS011;61519;60.050;18.582;2024-03-06T14:18:59;3.42;;;1.30;;
73283;SDS011;61519;60.050;18.582;2024-03-06T14:21:25;4.20;;;1.87;;
73283;SDS011;61519;60.050;18.582;2024-03-06T14:23:50;6.50;;;1.53;;
73283;SDS011;61519;60.050;18.582;2024-03-06T14:26:15;4.70;;;1.73;;
73283;SDS011;61519;60.050;18.582;2024-03-06T14:28:41;5.23;;;1.73;;
73283;SDS011;61519;60.050;18.582;2024-03-06T14:31:07;5.20;;;1.70;;
73283;SDS011;61519;60.050;18.582;2024-03-06T14:33:33;3.88;;;1.30;;
73283;SDS011;61519;60.050;18.582;2024-03-06T14:35:58;9.80;;;1.80;;
73283;SDS011;61519;60.050;18.582;2024-03-06T14:38:24;3.70;;;1.48;;
73283;SDS011;61519;60.050;18.582;2024-03-06T14:40:50;5.07;;;1.57;;
73283;SDS011;61519;60.050;18.582;2024-03-06T14:43:15;4.70;;;1.60;;